Sanshun Maru — JD2266 — position and weather

sailwx.info

Track history (hours):
 
Tides and Currents Weather Stations Pressure Air Temp Water Temp Dewpoint Dewpoint Depression Visibility Wind Speed Wind Dir Waves Ship Positions

Sanshun Maru

Last reported at 2018-Jul-17 04:37 UTC. Time now 2018-Jul-21 08:00 UTC.
Position N 34°28' E 134°30'.

Length 64 m; draft 4.4 m.

Type: Tanker. MMSI: 431101145.

Date/timePositionNaut miles runAvg speedWind from/ knotsBaromVisibWave heightAir tempDewpointWater temp
2018-Jul-17 04:37N 34°28' E 134°30'111.6
2018-Jul-17 04:30N 34°28' E 134°32'611.8
2018-Jul-17 03:58N 34°31' E 134°39'612.3
2018-Jul-17 03:30N 34°33' E 134°45'612.9
2018-Jul-17 03:00N 34°35' E 134°53'713.0
2018-Jul-17 02:25N 34°37' E 135°01'611.6
2018-Jul-17 01:56N 34°36' E 135°08'512.1
2018-Jul-17 01:30N 34°37' E 135°14'4 8.0
2018-Jul-17 01:00N 34°40' E 135°18'0 0.0
2018-Jul-17 00:30N 34°40' E 135°18'0 0.0
2018-Jul-16 23:30N 34°40' E 135°18'0 0.1
2018-Jul-16 23:01N 34°40' E 135°18'0 0.1
2018-Jul-16 22:31N 34°40' E 135°18'0 0.0
2018-Jul-16 22:00N 34°40' E 135°18'2 3.0
2018-Jul-16 21:30N 34°39' E 135°19'0 0.3
2018-Jul-16 21:00N 34°39' E 135°19'0 0.0
2018-Jul-16 20:30N 34°39' E 135°19'0 0.0
2018-Jul-16 20:00N 34°39' E 135°19'0 0.0
2018-Jul-16 19:31N 34°39' E 135°19'0 0.0
2018-Jul-16 19:00N 34°39' E 135°19'0 0.1
2018-Jul-16 18:30N 34°39' E 135°19'0 0.0
2018-Jul-16 18:00N 34°39' E 135°19'0 0.0
2018-Jul-16 17:30N 34°39' E 135°19'0 0.0
2018-Jul-16 17:00N 34°39' E 135°19'0 0.0
2018-Jul-16 16:30N 34°39' E 135°19'0 0.0
2018-Jul-16 16:01N 34°39' E 135°19'0 0.0
2018-Jul-16 15:31N 34°39' E 135°19'0 0.0
2018-Jul-16 15:01N 34°39' E 135°19'0 0.0
2018-Jul-16 14:31N 34°39' E 135°19'0 0.0
2018-Jul-16 14:00N 34°39' E 135°19'0 0.0
2018-Jul-16 13:30N 34°39' E 135°19'0 0.0
2018-Jul-16 13:00N 34°39' E 135°19'0 0.0
2018-Jul-16 12:30N 34°39' E 135°19'0 0.0
2018-Jul-16 12:00N 34°39' E 135°19'0 0.0
2018-Jul-16 11:30N 34°39' E 135°19'0 0.0
2018-Jul-16 11:00N 34°39' E 135°19'0 0.0
2018-Jul-16 10:31N 34°39' E 135°19'0 0.0
2018-Jul-16 10:01N 34°39' E 135°19'0 0.0
2018-Jul-16 09:30N 34°39' E 135°19'0 0.6
2018-Jul-16 09:00N 34°39' E 135°19'612.7
2018-Jul-16 08:31N 34°36' E 135°12'713.8
2018-Jul-16 08:00N 34°35' E 135°04'914.9
2018-Jul-16 07:23N 34°35' E 134°53'614.9
2018-Jul-16 07:00N 34°32' E 134°47'713.3
2018-Jul-16 06:30N 34°30' E 134°39'612.9
2018-Jul-16 06:00N 34°27' E 134°32'612.7
2018-Jul-16 05:30N 34°25' E 134°25'612.6
2018-Jul-16 04:59N 34°24' E 134°17'4 0.2
2018-Jul-15 09:55N 34°24' E 134°13'510.8
2018-Jul-15 09:30N 34°24' E 134°18'510.5
2018-Jul-15 09:00N 34°22' E 134°24'510.4
2018-Jul-15 08:30N 34°20' E 134°30'1010.2
2018-Jul-15 07:32N 34°14' E 134°39'1 7.4
2018-Jul-15 07:27N 34°13' E 134°40'8 9.3
2018-Jul-15 06:35N 34°07' E 134°46'210.0
2018-Jul-15 06:26N 34°06' E 134°47'6 9.8
2018-Jul-15 05:51N 34°01' E 134°52'4 9.7
2018-Jul-15 05:28N 33°59' E 134°55'4 9.4
2018-Jul-15 05:00N 33°55' E 134°58'5 9.8
2018-Jul-15 04:30N 33°51' E 135°02'1010.4
2018-Jul-15 03:33N 33°44' E 135°09'  
2018-Jul-12 03:25N 34°53' E 139°49'614.2
2018-Jul-12 03:00N 34°58' E 139°44'612.3
2018-Jul-12 02:30N 35°04' E 139°45'612.8
2018-Jul-12 02:00N 35°10' E 139°46'612.2
2018-Jul-12 01:29N 35°16' E 139°45'612.3
2018-Jul-12 01:00N 35°22' E 139°42'611.8
2018-Jul-12 00:31N 35°26' E 139°46'713.1
2018-Jul-12 00:01N 35°30' E 139°53'5 0.2
2018-Jul-11 00:21N 35°36' E 139°50'2 4.8
2018-Jul-11 00:00N 35°37' E 139°50'0 0.0
2018-Jul-10 23:30N 35°37' E 139°50'0 0.0
2018-Jul-10 22:58N 35°37' E 139°50'3 6.7
2018-Jul-10 22:30N 35°35' E 139°53'0 0.1
2018-Jul-10 22:00N 35°35' E 139°53'0 0.1
2018-Jul-10 21:31N 35°35' E 139°53'0 0.0
2018-Jul-10 20:37N 35°35' E 139°53'0 0.0
2018-Jul-10 20:20N 35°35' E 139°53'0 0.0
2018-Jul-10 20:00N 35°35' E 139°53'0 0.1
2018-Jul-10 19:30N 35°35' E 139°53'0 0.0
2018-Jul-10 19:00N 35°35' E 139°53'0 0.1
2018-Jul-10 18:24N 35°35' E 139°53'0 0.0
2018-Jul-10 18:00N 35°35' E 139°53'0 0.1
2018-Jul-10 17:30N 35°35' E 139°53'0 0.0
2018-Jul-10 16:55N 35°35' E 139°53'0 0.0
2018-Jul-10 16:24N 35°35' E 139°53'0 0.0
2018-Jul-10 15:52N 35°35' E 139°53'0 0.0
2018-Jul-10 15:29N 35°35' E 139°53'0 0.0
2018-Jul-10 14:54N 35°35' E 139°53'0 0.0
2018-Jul-10 14:30N 35°35' E 139°53'0 0.0
2018-Jul-10 13:58N 35°35' E 139°53'0 0.0
2018-Jul-10 12:53N 35°35' E 139°53'0 0.0
2018-Jul-10 12:24N 35°35' E 139°53'0 0.0
2018-Jul-10 10:42N 35°35' E 139°53'0 0.0
2018-Jul-10 10:24N 35°35' E 139°53'0 0.0
2018-Jul-10 09:52N 35°35' E 139°53'0 0.1
2018-Jul-10 09:29N 35°35' E 139°53'0 0.0
2018-Jul-10 08:57N 35°35' E 139°53'0 0.0
2018-Jul-10 08:27N 35°35' E 139°53'0 0.0
2018-Jul-10 08:00N 35°35' E 139°53'0 0.0
2018-Jul-10 07:29N 35°35' E 139°53'0 0.1
2018-Jul-10 07:00N 35°35' E 139°53'0 0.0
2018-Jul-10 06:31N 35°35' E 139°53'0 0.0
2018-Jul-10 06:01N 35°35' E 139°53'0 0.0
2018-Jul-10 05:30N 35°35' E 139°53'0 0.0
2018-Jul-10 05:01N 35°35' E 139°53'0 0.0
2018-Jul-10 04:30N 35°35' E 139°53'0 0.0
2018-Jul-10 04:01N 35°35' E 139°53'5 6.8
2018-Jul-10 03:17N 35°33' E 139°58'3 0.2
2018-Jul-09 08:58N 35°30' E 140°00'6 2.8
2018-Jul-09 06:41N 35°29' E 139°53'211.5
2018-Jul-09 06:30N 35°27' E 139°51'611.4
2018-Jul-09 06:00N 35°23' E 139°46'510.8
2018-Jul-09 05:31N 35°18' E 139°45'610.8
2018-Jul-09 05:00N 35°13' E 139°47'611.4
2018-Jul-09 04:30N 35°08' E 139°45'611.7
2018-Jul-09 04:00N 35°03' E 139°41'612.1
2018-Jul-09 03:30N 34°59' E 139°35'  
Track history (hours):
 
Tides and Currents Weather Stations Pressure Air Temp Water Temp Dewpoint Dewpoint Depression Visibility Wind Speed Wind Dir Waves Ship Positions

Sanshun Maru

Last reported at 2018-Jul-17 04:37 UTC. Time now 2018-Jul-21 08:00 UTC.
Position N 34°28' E 134°30'.

Length 64 m; draft 4.4 m.

Type: Tanker. MMSI: 431101145.

Date/timePositionNaut miles runAvg speedWind from/ knotsBaromVisibWave heightAir tempDewpointWater temp
2018-Jul-17 04:37N 34°28' E 134°30'111.6
2018-Jul-17 04:30N 34°28' E 134°32'611.8
2018-Jul-17 03:58N 34°31' E 134°39'612.3
2018-Jul-17 03:30N 34°33' E 134°45'612.9
2018-Jul-17 03:00N 34°35' E 134°53'713.0
2018-Jul-17 02:25N 34°37' E 135°01'611.6
2018-Jul-17 01:56N 34°36' E 135°08'512.1
2018-Jul-17 01:30N 34°37' E 135°14'4 8.0
2018-Jul-17 01:00N 34°40' E 135°18'0 0.0
2018-Jul-17 00:30N 34°40' E 135°18'0 0.0
2018-Jul-16 23:30N 34°40' E 135°18'0 0.1
2018-Jul-16 23:01N 34°40' E 135°18'0 0.1
2018-Jul-16 22:31N 34°40' E 135°18'0 0.0
2018-Jul-16 22:00N 34°40' E 135°18'2 3.0
2018-Jul-16 21:30N 34°39' E 135°19'0 0.3
2018-Jul-16 21:00N 34°39' E 135°19'0 0.0
2018-Jul-16 20:30N 34°39' E 135°19'0 0.0
2018-Jul-16 20:00N 34°39' E 135°19'0 0.0
2018-Jul-16 19:31N 34°39' E 135°19'0 0.0
2018-Jul-16 19:00N 34°39' E 135°19'0 0.1
2018-Jul-16 18:30N 34°39' E 135°19'0 0.0
2018-Jul-16 18:00N 34°39' E 135°19'0 0.0
2018-Jul-16 17:30N 34°39' E 135°19'0 0.0
2018-Jul-16 17:00N 34°39' E 135°19'0 0.0
2018-Jul-16 16:30N 34°39' E 135°19'0 0.0
2018-Jul-16 16:01N 34°39' E 135°19'0 0.0
2018-Jul-16 15:31N 34°39' E 135°19'0 0.0
2018-Jul-16 15:01N 34°39' E 135°19'0 0.0
2018-Jul-16 14:31N 34°39' E 135°19'0 0.0
2018-Jul-16 14:00N 34°39' E 135°19'0 0.0
2018-Jul-16 13:30N 34°39' E 135°19'0 0.0
2018-Jul-16 13:00N 34°39' E 135°19'0 0.0
2018-Jul-16 12:30N 34°39' E 135°19'0 0.0
2018-Jul-16 12:00N 34°39' E 135°19'0 0.0
2018-Jul-16 11:30N 34°39' E 135°19'0 0.0
2018-Jul-16 11:00N 34°39' E 135°19'0 0.0
2018-Jul-16 10:31N 34°39' E 135°19'0 0.0
2018-Jul-16 10:01N 34°39' E 135°19'0 0.0
2018-Jul-16 09:30N 34°39' E 135°19'0 0.6
2018-Jul-16 09:00N 34°39' E 135°19'612.7
2018-Jul-16 08:31N 34°36' E 135°12'713.8
2018-Jul-16 08:00N 34°35' E 135°04'914.9
2018-Jul-16 07:23N 34°35' E 134°53'614.9
2018-Jul-16 07:00N 34°32' E 134°47'713.3
2018-Jul-16 06:30N 34°30' E 134°39'612.9
2018-Jul-16 06:00N 34°27' E 134°32'612.7
2018-Jul-16 05:30N 34°25' E 134°25'612.6
2018-Jul-16 04:59N 34°24' E 134°17'4 0.2
2018-Jul-15 09:55N 34°24' E 134°13'510.8
2018-Jul-15 09:30N 34°24' E 134°18'510.5
2018-Jul-15 09:00N 34°22' E 134°24'510.4
2018-Jul-15 08:30N 34°20' E 134°30'1010.2
2018-Jul-15 07:32N 34°14' E 134°39'1 7.4
2018-Jul-15 07:27N 34°13' E 134°40'8 9.3
2018-Jul-15 06:35N 34°07' E 134°46'210.0
2018-Jul-15 06:26N 34°06' E 134°47'6 9.8
2018-Jul-15 05:51N 34°01' E 134°52'4 9.7
2018-Jul-15 05:28N 33°59' E 134°55'4 9.4
2018-Jul-15 05:00N 33°55' E 134°58'5 9.8
2018-Jul-15 04:30N 33°51' E 135°02'1010.4
2018-Jul-15 03:33N 33°44' E 135°09'  
2018-Jul-12 03:25N 34°53' E 139°49'614.2
2018-Jul-12 03:00N 34°58' E 139°44'612.3
2018-Jul-12 02:30N 35°04' E 139°45'612.8
2018-Jul-12 02:00N 35°10' E 139°46'612.2
2018-Jul-12 01:29N 35°16' E 139°45'612.3
2018-Jul-12 01:00N 35°22' E 139°42'611.8
2018-Jul-12 00:31N 35°26' E 139°46'713.1
2018-Jul-12 00:01N 35°30' E 139°53'5 0.2
2018-Jul-11 00:21N 35°36' E 139°50'2 4.8
2018-Jul-11 00:00N 35°37' E 139°50'0 0.0
2018-Jul-10 23:30N 35°37' E 139°50'0 0.0
2018-Jul-10 22:58N 35°37' E 139°50'3 6.7
2018-Jul-10 22:30N 35°35' E 139°53'0 0.1
2018-Jul-10 22:00N 35°35' E 139°53'0 0.1
2018-Jul-10 21:31N 35°35' E 139°53'0 0.0
2018-Jul-10 20:37N 35°35' E 139°53'0 0.0
2018-Jul-10 20:20N 35°35' E 139°53'0 0.0
2018-Jul-10 20:00N 35°35' E 139°53'0 0.1
2018-Jul-10 19:30N 35°35' E 139°53'0 0.0
2018-Jul-10 19:00N 35°35' E 139°53'0 0.1
2018-Jul-10 18:24N 35°35' E 139°53'0 0.0
2018-Jul-10 18:00N 35°35' E 139°53'0 0.1
2018-Jul-10 17:30N 35°35' E 139°53'0 0.0
2018-Jul-10 16:55N 35°35' E 139°53'0 0.0
2018-Jul-10 16:24N 35°35' E 139°53'0 0.0
2018-Jul-10 15:52N 35°35' E 139°53'0 0.0
2018-Jul-10 15:29N 35°35' E 139°53'0 0.0
2018-Jul-10 14:54N 35°35' E 139°53'0 0.0
2018-Jul-10 14:30N 35°35' E 139°53'0 0.0
2018-Jul-10 13:58N 35°35' E 139°53'0 0.0
2018-Jul-10 12:53N 35°35' E 139°53'0 0.0
2018-Jul-10 12:24N 35°35' E 139°53'0 0.0
2018-Jul-10 10:42N 35°35' E 139°53'0 0.0
2018-Jul-10 10:24N 35°35' E 139°53'0 0.0
2018-Jul-10 09:52N 35°35' E 139°53'0 0.1
2018-Jul-10 09:29N 35°35' E 139°53'0 0.0
2018-Jul-10 08:57N 35°35' E 139°53'0 0.0
2018-Jul-10 08:27N 35°35' E 139°53'0 0.0
2018-Jul-10 08:00N 35°35' E 139°53'0 0.0
2018-Jul-10 07:29N 35°35' E 139°53'0 0.1
2018-Jul-10 07:00N 35°35' E 139°53'0 0.0
2018-Jul-10 06:31N 35°35' E 139°53'0 0.0
2018-Jul-10 06:01N 35°35' E 139°53'0 0.0
2018-Jul-10 05:30N 35°35' E 139°53'0 0.0
2018-Jul-10 05:01N 35°35' E 139°53'0 0.0
2018-Jul-10 04:30N 35°35' E 139°53'0 0.0
2018-Jul-10 04:01N 35°35' E 139°53'5 6.8
2018-Jul-10 03:17N 35°33' E 139°58'3 0.2
2018-Jul-09 08:58N 35°30' E 140°00'6 2.8
2018-Jul-09 06:41N 35°29' E 139°53'211.5
2018-Jul-09 06:30N 35°27' E 139°51'611.4
2018-Jul-09 06:00N 35°23' E 139°46'510.8
2018-Jul-09 05:31N 35°18' E 139°45'610.8
2018-Jul-09 05:00N 35°13' E 139°47'611.4
2018-Jul-09 04:30N 35°08' E 139°45'611.7
2018-Jul-09 04:00N 35°03' E 139°41'612.1
2018-Jul-09 03:30N 34°59' E 139°35'  

Dump ship's entire track history